sensor_id;sensor_type;location;lat;lon;timestamp;temperature;humidity
4461;DHT22;2243;48.812;9.232;2023-12-04T00:01:03;-2.40;99.90
4461;DHT22;2243;48.812;9.232;2023-12-04T00:03:35;-2.50;99.90
4461;DHT22;2243;48.812;9.232;2023-12-04T00:06:13;-2.60;99.90
4461;DHT22;2243;48.812;9.232;2023-12-04T00:08:44;-2.50;99.90
4461;DHT22;2243;48.812;9.232;2023-12-04T00:11:15;-2.50;99.90
4461;DHT22;2243;48.812;9.232;2023-12-04T00:13:46;-2.50;99.90
4461;DHT22;2243;48.812;9.232;2023-12-04T00:16:17;-2.50;99.90
4461;DHT22;2243;48.812;9.232;2023-12-04T00:18:48;-2.50;99.90
4461;DHT22;2243;48.812;9.232;2023-12-04T00:21:19;-2.50;99.90
4461;DHT22;2243;48.812;9.232;2023-12-04T00:23:50;-2.60;99.90
4461;DHT22;2243;48.812;9.232;2023-12-04T00:26:21;-2.60;99.90
4461;DHT22;2243;48.812;9.232;2023-12-04T00:28:52;-2.60;99.90
4461;DHT22;2243;48.812;9.232;2023-12-04T00:31:23;-2.50;99.90
4461;DHT22;2243;48.812;9.232;2023-12-04T00:33:54;-2.60;99.90
4461;DHT22;2243;48.812;9.232;2023-12-04T00:36:25;-2.50;99.90
4461;DHT22;2243;48.812;9.232;2023-12-04T00:38:57;-2.50;99.90
4461;DHT22;2243;48.812;9.232;2023-12-04T00:41:28;-2.70;99.90
4461;DHT22;2243;48.812;9.232;2023-12-04T00:43:59;-2.70;99.90
4461;DHT22;2243;48.812;9.232;2023-12-04T00:46:30;-2.70;99.90
4461;DHT22;2243;48.812;9.232;2023-12-04T00:49:01;-2.60;99.90
4461;DHT22;2243;48.812;9.232;2023-12-04T00:51:38;-2.50;99.90
4461;DHT22;2243;48.812;9.232;2023-12-04T00:54:10;-2.60;99.90
4461;DHT22;2243;48.812;9.232;2023-12-04T00:56:42;-2.70;99.90
4461;DHT22;2243;48.812;9.232;2023-12-04T00:59:13;-2.60;99.90
4461;DHT22;2243;48.812;9.232;2023-12-04T01:01:44;-2.60;99.90
4461;DHT22;2243;48.812;9.232;2023-12-04T01:04:15;-2.80;99.90
4461;DHT22;2243;48.812;9.232;2023-12-04T01:06:46;-3.00;99.90
4461;DHT22;2243;48.812;9.232;2023-12-04T01:09:17;-3.10;99.90
4461;DHT22;2243;48.812;9.232;2023-12-04T01:11:48;-3.20;99.90
4461;DHT22;2243;48.812;9.232;2023-12-04T01:14:20;-3.10;99.90
4461;DHT22;2243;48.812;9.232;2023-12-04T01:16:51;-3.20;99.90
4461;DHT22;2243;48.812;9.232;2023-12-04T01:19:23;-3.20;99.90
4461;DHT22;2243;48.812;9.232;2023-12-04T01:21:54;-3.20;99.90
4461;DHT22;2243;48.812;9.232;2023-12-04T01:24:25;-3.10;99.90
4461;DHT22;2243;48.812;9.232;2023-12-04T01:26:56;-2.90;99.90
4461;DHT22;2243;48.812;9.232;2023-12-04T01:29:27;-2.90;99.90
4461;DHT22;2243;48.812;9.232;2023-12-04T01:32:00;-2.90;99.90
4461;DHT22;2243;48.812;9.232;2023-12-04T01:34:31;-2.90;99.90
4461;DHT22;2243;48.812;9.232;2023-12-04T01:37:02;-2.80;99.90
4461;DHT22;2243;48.812;9.232;2023-12-04T01:39:33;-2.70;99.90
4461;DHT22;2243;48.812;9.232;2023-12-04T01:42:04;-2.70;99.90
4461;DHT22;2243;48.812;9.232;2023-12-04T01:44:35;-2.80;99.90
4461;DHT22;2243;48.812;9.232;2023-12-04T01:47:06;-2.90;99.90
4461;DHT22;2243;48.812;9.232;2023-12-04T01:49:40;-2.80;99.90
4461;DHT22;2243;48.812;9.232;2023-12-04T01:52:11;-2.90;99.90
4461;DHT22;2243;48.812;9.232;2023-12-04T01:54:43;-2.80;99.90
4461;DHT22;2243;48.812;9.232;2023-12-04T01:57:14;-2.80;99.90
4461;DHT22;2243;48.812;9.232;2023-12-04T01:59:45;-2.70;99.90
4461;DHT22;2243;48.812;9.232;2023-12-04T02:02:17;-2.70;99.90
4461;DHT22;2243;48.812;9.232;2023-12-04T02:04:48;-2.60;99.90
4461;DHT22;2243;48.812;9.232;2023-12-04T02:07:19;-2.60;99.90
4461;DHT22;2243;48.812;9.232;2023-12-04T02:09:50;-2.60;99.90
4461;DHT22;2243;48.812;9.232;2023-12-04T02:12:21;-2.50;99.90
4461;DHT22;2243;48.812;9.232;2023-12-04T02:14:52;-2.50;99.90
4461;DHT22;2243;48.812;9.232;2023-12-04T02:17:24;-2.50;99.90
4461;DHT22;2243;48.812;9.232;2023-12-04T02:19:57;-2.50;99.90
4461;DHT22;2243;48.812;9.232;2023-12-04T02:22:28;-2.50;99.90
4461;DHT22;2243;48.812;9.232;2023-12-04T02:25:00;-2.60;99.90
4461;DHT22;2243;48.812;9.232;2023-12-04T02:27:40;-2.50;99.90
4461;DHT22;2243;48.812;9.232;2023-12-04T02:30:18;-2.50;99.90
4461;DHT22;2243;48.812;9.232;2023-12-04T02:32:52;-2.50;99.90
4461;DHT22;2243;48.812;9.232;2023-12-04T02:35:27;-2.60;99.90
4461;DHT22;2243;48.812;9.232;2023-12-04T02:38:01;-2.50;99.90
4461;DHT22;2243;48.812;9.232;2023-12-04T02:40:32;-2.60;99.90
4461;DHT22;2243;48.812;9.232;2023-12-04T02:43:03;-2.70;99.90
4461;DHT22;2243;48.812;9.232;2023-12-04T02:45:34;-2.70;99.90
4461;DHT22;2243;48.812;9.232;2023-12-04T02:48:05;-2.70;99.90
4461;DHT22;2243;48.812;9.232;2023-12-04T02:50:37;-2.90;99.90
4461;DHT22;2243;48.812;9.232;2023-12-04T02:53:08;-2.80;99.90
4461;DHT22;2243;48.812;9.232;2023-12-04T02:55:39;-2.70;99.90
4461;DHT22;2243;48.812;9.232;2023-12-04T02:58:10;-2.80;99.90
4461;DHT22;2243;48.812;9.232;2023-12-04T03:00:41;-2.80;99.90
4461;DHT22;2243;48.812;9.232;2023-12-04T03:03:12;-2.90;99.90
4461;DHT22;2243;48.812;9.232;2023-12-04T03:05:43;-3.10;99.90
4461;DHT22;2243;48.812;9.232;2023-12-04T03:08:14;-3.10;99.90
4461;DHT22;2243;48.812;9.232;2023-12-04T03:10:45;-3.00;99.90
4461;DHT22;2243;48.812;9.232;2023-12-04T03:13:16;-2.80;99.90
4461;DHT22;2243;48.812;9.232;2023-12-04T03:15:47;-2.90;99.90
4461;DHT22;2243;48.812;9.232;2023-12-04T03:18:18;-3.00;99.90
4461;DHT22;2243;48.812;9.232;2023-12-04T03:20:49;-3.00;99.90
4461;DHT22;2243;48.812;9.232;2023-12-04T03:23:20;-3.00;99.90
4461;DHT22;2243;48.812;9.232;2023-12-04T03:25:51;-2.90;99.90
4461;DHT22;2243;48.812;9.232;2023-12-04T03:28:22;-2.90;99.90
4461;DHT22;2243;48.812;9.232;2023-12-04T03:30:52;-2.90;99.90
4461;DHT22;2243;48.812;9.232;2023-12-04T03:33:23;-2.90;99.90
4461;DHT22;2243;48.812;9.232;2023-12-04T03:35:55;-2.80;99.90
4461;DHT22;2243;48.812;9.232;2023-12-04T03:38:26;-2.80;99.90
4461;DHT22;2243;48.812;9.232;2023-12-04T03:40:57;-2.80;99.90
4461;DHT22;2243;48.812;9.232;2023-12-04T03:43:28;-2.80;99.90
4461;DHT22;2243;48.812;9.232;2023-12-04T03:45:59;-2.90;99.90
4461;DHT22;2243;48.812;9.232;2023-12-04T03:48:31;-2.90;99.90
4461;DHT22;2243;48.812;9.232;2023-12-04T03:51:02;-2.80;99.90
4461;DHT22;2243;48.812;9.232;2023-12-04T03:53:33;-3.00;99.90
4461;DHT22;2243;48.812;9.232;2023-12-04T03:56:05;-2.90;99.90
4461;DHT22;2243;48.812;9.232;2023-12-04T03:58:36;-2.80;99.90
4461;DHT22;2243;48.812;9.232;2023-12-04T04:01:09;-2.90;99.90
4461;DHT22;2243;48.812;9.232;2023-12-04T04:03:40;-2.90;99.90
4461;DHT22;2243;48.812;9.232;2023-12-04T04:06:11;-2.70;99.90
4461;DHT22;2243;48.812;9.232;2023-12-04T04:08:42;-2.70;99.90
4461;DHT22;2243;48.812;9.232;2023-12-04T04:11:13;-2.70;99.90
4461;DHT22;2243;48.812;9.232;2023-12-04T04:13:45;-2.80;99.90
4461;DHT22;2243;48.812;9.232;2023-12-04T04:16:16;-2.90;99.90
4461;DHT22;2243;48.812;9.232;2023-12-04T04:18:47;-2.80;99.90
4461;DHT22;2243;48.812;9.232;2023-12-04T04:21:18;-2.80;99.90
4461;DHT22;2243;48.812;9.232;2023-12-04T04:23:49;-2.60;99.90
4461;DHT22;2243;48.812;9.232;2023-12-04T04:26:20;-2.60;99.90
4461;DHT22;2243;48.812;9.232;2023-12-04T04:28:51;-2.70;99.90
4461;DHT22;2243;48.812;9.232;2023-12-04T04:31:22;-2.70;99.90
4461;DHT22;2243;48.812;9.232;2023-12-04T04:33:52;-2.80;99.90
4461;DHT22;2243;48.812;9.232;2023-12-04T04:36:23;-2.90;99.90
4461;DHT22;2243;48.812;9.232;2023-12-04T04:38:55;-3.00;99.90
4461;DHT22;2243;48.812;9.232;2023-12-04T04:41:26;-3.00;99.90
4461;DHT22;2243;48.812;9.232;2023-12-04T04:43:57;-3.00;99.90
4461;DHT22;2243;48.812;9.232;2023-12-04T04:46:28;-3.00;99.90
4461;DHT22;2243;48.812;9.232;2023-12-04T04:48:59;-3.00;99.90
4461;DHT22;2243;48.812;9.232;2023-12-04T04:51:30;-2.90;99.90
4461;DHT22;2243;48.812;9.232;2023-12-04T04:54:02;-2.80;99.90
4461;DHT22;2243;48.812;9.232;2023-12-04T04:56:33;-2.80;99.90
4461;DHT22;2243;48.812;9.232;2023-12-04T04:59:04;-2.80;99.90
4461;DHT22;2243;48.812;9.232;2023-12-04T05:01:35;-2.80;99.90
4461;DHT22;2243;48.812;9.232;2023-12-04T05:04:07;-2.80;99.90
4461;DHT22;2243;48.812;9.232;2023-12-04T05:06:38;-2.80;99.90
4461;DHT22;2243;48.812;9.232;2023-12-04T05:09:09;-2.80;99.90
4461;DHT22;2243;48.812;9.232;2023-12-04T05:11:40;-2.80;99.90
4461;DHT22;2243;48.812;9.232;2023-12-04T05:14:11;-2.90;99.90
4461;DHT22;2243;48.812;9.232;2023-12-04T05:16:42;-2.90;99.90
4461;DHT22;2243;48.812;9.232;2023-12-04T05:19:13;-3.00;99.90
4461;DHT22;2243;48.812;9.232;2023-12-04T05:21:44;-3.20;99.90
4461;DHT22;2243;48.812;9.232;2023-12-04T05:24:15;-3.20;99.90
4461;DHT22;2243;48.812;9.232;2023-12-04T05:26:46;-3.10;99.90
4461;DHT22;2243;48.812;9.232;2023-12-04T05:29:17;-3.10;99.90
4461;DHT22;2243;48.812;9.232;2023-12-04T05:31:48;-3.00;99.90
4461;DHT22;2243;48.812;9.232;2023-12-04T05:34:19;-2.90;99.90
4461;DHT22;2243;48.812;9.232;2023-12-04T05:36:50;-2.90;99.90
4461;DHT22;2243;48.812;9.232;2023-12-04T05:39:22;-2.90;99.90
4461;DHT22;2243;48.812;9.232;2023-12-04T05:41:53;-2.90;99.90
4461;DHT22;2243;48.812;9.232;2023-12-04T05:44:24;-2.80;99.90
4461;DHT22;2243;48.812;9.232;2023-12-04T05:46:55;-2.80;99.90
4461;DHT22;2243;48.812;9.232;2023-12-04T05:49:26;-2.70;99.90
4461;DHT22;2243;48.812;9.232;2023-12-04T05:51:57;-2.70;99.90
4461;DHT22;2243;48.812;9.232;2023-12-04T05:54:28;-2.60;99.90
4461;DHT22;2243;48.812;9.232;2023-12-04T05:56:59;-2.50;99.90
4461;DHT22;2243;48.812;9.232;2023-12-04T05:59:30;-2.50;99.90
4461;DHT22;2243;48.812;9.232;2023-12-04T06:02:01;-2.50;99.90
4461;DHT22;2243;48.812;9.232;2023-12-04T06:04:32;-2.40;99.90
4461;DHT22;2243;48.812;9.232;2023-12-04T06:07:03;-2.40;99.90
4461;DHT22;2243;48.812;9.232;2023-12-04T06:09:35;-2.50;99.90
4461;DHT22;2243;48.812;9.232;2023-12-04T06:12:09;-2.50;99.90
4461;DHT22;2243;48.812;9.232;2023-12-04T06:14:40;-2.40;99.90
4461;DHT22;2243;48.812;9.232;2023-12-04T06:17:11;-2.50;99.90
4461;DHT22;2243;48.812;9.232;2023-12-04T06:19:42;-2.50;99.90
4461;DHT22;2243;48.812;9.232;2023-12-04T06:22:13;-2.50;99.90
4461;DHT22;2243;48.812;9.232;2023-12-04T06:24:45;-2.50;99.90
4461;DHT22;2243;48.812;9.232;2023-12-04T06:27:17;-2.40;99.90
4461;DHT22;2243;48.812;9.232;2023-12-04T06:29:51;-2.50;99.90
4461;DHT22;2243;48.812;9.232;2023-12-04T06:32:23;-2.40;99.90
4461;DHT22;2243;48.812;9.232;2023-12-04T06:34:54;-2.60;99.90
4461;DHT22;2243;48.812;9.232;2023-12-04T06:37:26;-2.70;99.90
4461;DHT22;2243;48.812;9.232;2023-12-04T06:39:59;-2.70;99.90
4461;DHT22;2243;48.812;9.232;2023-12-04T06:42:34;-2.70;99.90
4461;DHT22;2243;48.812;9.232;2023-12-04T06:45:07;-2.70;99.90
4461;DHT22;2243;48.812;9.232;2023-12-04T06:47:40;-2.80;99.90
4461;DHT22;2243;48.812;9.232;2023-12-04T06:50:12;-3.00;99.90
4461;DHT22;2243;48.812;9.232;2023-12-04T06:52:43;-2.90;99.90
4461;DHT22;2243;48.812;9.232;2023-12-04T06:55:14;-2.70;99.90
4461;DHT22;2243;48.812;9.232;2023-12-04T06:57:45;-2.80;99.90
4461;DHT22;2243;48.812;9.232;2023-12-04T07:00:16;-2.80;99.90
4461;DHT22;2243;48.812;9.232;2023-12-04T07:02:52;-2.70;99.90
4461;DHT22;2243;48.812;9.232;2023-12-04T07:05:23;-2.60;99.90
4461;DHT22;2243;48.812;9.232;2023-12-04T07:07:54;-2.40;99.90
4461;DHT22;2243;48.812;9.232;2023-12-04T07:10:26;-2.30;99.90
4461;DHT22;2243;48.812;9.232;2023-12-04T07:12:57;-2.20;99.90
4461;DHT22;2243;48.812;9.232;2023-12-04T07:15:28;-2.20;99.90
4461;DHT22;2243;48.812;9.232;2023-12-04T07:17:59;-2.30;99.90
4461;DHT22;2243;48.812;9.232;2023-12-04T07:20:30;-2.20;99.90
4461;DHT22;2243;48.812;9.232;2023-12-04T07:23:02;-2.20;99.90
4461;DHT22;2243;48.812;9.232;2023-12-04T07:25:32;-2.40;99.90
4461;DHT22;2243;48.812;9.232;2023-12-04T07:28:04;-2.40;99.90
4461;DHT22;2243;48.812;9.232;2023-12-04T07:30:34;-2.40;99.90
4461;DHT22;2243;48.812;9.232;2023-12-04T07:33:06;-2.50;99.90
4461;DHT22;2243;48.812;9.232;2023-12-04T07:35:40;-2.50;99.90
4461;DHT22;2243;48.812;9.232;2023-12-04T07:38:11;-2.30;99.90
4461;DHT22;2243;48.812;9.232;2023-12-04T07:40:42;-2.30;99.90
4461;DHT22;2243;48.812;9.232;2023-12-04T07:43:13;-2.30;99.90
4461;DHT22;2243;48.812;9.232;2023-12-04T07:45:44;-2.40;99.90
4461;DHT22;2243;48.812;9.232;2023-12-04T07:48:16;-2.30;99.90
4461;DHT22;2243;48.812;9.232;2023-12-04T07:50:48;-2.30;99.90
4461;DHT22;2243;48.812;9.232;2023-12-04T07:53:19;-2.20;99.90
4461;DHT22;2243;48.812;9.232;2023-12-04T07:55:50;-2.30;99.90
4461;DHT22;2243;48.812;9.232;2023-12-04T07:58:21;-2.20;99.90
4461;DHT22;2243;48.812;9.232;2023-12-04T08:00:52;-2.10;99.90
4461;DHT22;2243;48.812;9.232;2023-12-04T08:03:23;-2.20;99.90
4461;DHT22;2243;48.812;9.232;2023-12-04T08:05:55;-2.10;99.90
4461;DHT22;2243;48.812;9.232;2023-12-04T08:08:26;-2.20;99.90
4461;DHT22;2243;48.812;9.232;2023-12-04T08:10:57;-2.20;99.90
4461;DHT22;2243;48.812;9.232;2023-12-04T08:13:28;-2.10;99.90
4461;DHT22;2243;48.812;9.232;2023-12-04T08:15:59;-2.00;99.90
4461;DHT22;2243;48.812;9.232;2023-12-04T08:18:31;-2.00;99.90
4461;DHT22;2243;48.812;9.232;2023-12-04T08:21:02;-2.10;99.90
4461;DHT22;2243;48.812;9.232;2023-12-04T08:23:33;-2.00;99.90
4461;DHT22;2243;48.812;9.232;2023-12-04T08:26:04;-2.10;99.90
4461;DHT22;2243;48.812;9.232;2023-12-04T08:28:36;-2.10;99.90
4461;DHT22;2243;48.812;9.232;2023-12-04T08:31:08;-2.00;99.90
4461;DHT22;2243;48.812;9.232;2023-12-04T08:33:39;-2.10;99.90
4461;DHT22;2243;48.812;9.232;2023-12-04T08:36:11;-2.30;99.90
4461;DHT22;2243;48.812;9.232;2023-12-04T08:38:43;-2.30;99.90
4461;DHT22;2243;48.812;9.232;2023-12-04T08:41:14;-2.10;99.90
4461;DHT22;2243;48.812;9.232;2023-12-04T08:43:45;-2.10;99.90
4461;DHT22;2243;48.812;9.232;2023-12-04T08:46:15;-2.00;99.90
4461;DHT22;2243;48.812;9.232;2023-12-04T08:48:47;-2.00;99.90
4461;DHT22;2243;48.812;9.232;2023-12-04T08:51:18;-1.90;99.90
4461;DHT22;2243;48.812;9.232;2023-12-04T08:53:49;-1.90;99.90
4461;DHT22;2243;48.812;9.232;2023-12-04T08:56:20;-1.80;99.90
4461;DHT22;2243;48.812;9.232;2023-12-04T08:59:00;-1.70;99.90
4461;DHT22;2243;48.812;9.232;2023-12-04T09:01:31;-1.90;99.90
4461;DHT22;2243;48.812;9.232;2023-12-04T09:04:02;-1.90;99.90
4461;DHT22;2243;48.812;9.232;2023-12-04T09:06:35;-1.80;99.90
4461;DHT22;2243;48.812;9.232;2023-12-04T09:09:09;-1.90;99.90
4461;DHT22;2243;48.812;9.232;2023-12-04T09:11:43;-1.70;99.90
4461;DHT22;2243;48.812;9.232;2023-12-04T09:14:14;-1.60;99.90
4461;DHT22;2243;48.812;9.232;2023-12-04T09:16:46;-1.70;99.90
4461;DHT22;2243;48.812;9.232;2023-12-04T09:19:17;-1.90;99.90
4461;DHT22;2243;48.812;9.232;2023-12-04T09:21:49;-1.80;99.90
4461;DHT22;2243;48.812;9.232;2023-12-04T09:24:37;-1.60;99.90
4461;DHT22;2243;48.812;9.232;2023-12-04T09:27:08;-1.50;99.90
4461;DHT22;2243;48.812;9.232;2023-12-04T09:29:41;-1.60;99.90
4461;DHT22;2243;48.812;9.232;2023-12-04T09:32:12;-1.50;99.90
4461;DHT22;2243;48.812;9.232;2023-12-04T09:34:43;-1.50;99.90
4461;DHT22;2243;48.812;9.232;2023-12-04T09:37:14;-1.40;99.90
4461;DHT22;2243;48.812;9.232;2023-12-04T09:39:45;-1.50;99.90
4461;DHT22;2243;48.812;9.232;2023-12-04T09:42:17;-1.60;99.90
4461;DHT22;2243;48.812;9.232;2023-12-04T09:44:52;-1.60;99.90
4461;DHT22;2243;48.812;9.232;2023-12-04T09:47:24;-1.70;99.90
4461;DHT22;2243;48.812;9.232;2023-12-04T09:49:57;-1.50;99.90
4461;DHT22;2243;48.812;9.232;2023-12-04T09:52:28;-1.40;99.90
4461;DHT22;2243;48.812;9.232;2023-12-04T09:55:00;-1.40;99.90
4461;DHT22;2243;48.812;9.232;2023-12-04T09:57:31;-1.40;99.90
4461;DHT22;2243;48.812;9.232;2023-12-04T10:00:03;-1.40;99.90
4461;DHT22;2243;48.812;9.232;2023-12-04T10:02:36;-1.30;99.90
4461;DHT22;2243;48.812;9.232;2023-12-04T10:05:08;-1.20;99.90
4461;DHT22;2243;48.812;9.232;2023-12-04T10:07:40;-1.20;99.90
4461;DHT22;2243;48.812;9.232;2023-12-04T10:10:11;-1.00;99.90
4461;DHT22;2243;48.812;9.232;2023-12-04T10:12:43;-1.00;99.90
4461;DHT22;2243;48.812;9.232;2023-12-04T10:15:14;-0.80;99.90
4461;DHT22;2243;48.812;9.232;2023-12-04T10:17:46;-0.90;99.90
4461;DHT22;2243;48.812;9.232;2023-12-04T10:20:17;-0.90;99.90
4461;DHT22;2243;48.812;9.232;2023-12-04T10:22:54;-0.80;99.90
4461;DHT22;2243;48.812;9.232;2023-12-04T10:25:30;-0.80;99.90
4461;DHT22;2243;48.812;9.232;2023-12-04T10:28:10;-0.80;99.90
4461;DHT22;2243;48.812;9.232;2023-12-04T10:30:42;-0.80;99.90
4461;DHT22;2243;48.812;9.232;2023-12-04T10:33:14;-0.80;99.90
4461;DHT22;2243;48.812;9.232;2023-12-04T10:35:46;-0.80;99.90
4461;DHT22;2243;48.812;9.232;2023-12-04T10:38:18;-0.70;99.90
4461;DHT22;2243;48.812;9.232;2023-12-04T10:40:49;-0.70;99.90
4461;DHT22;2243;48.812;9.232;2023-12-04T10:43:22;-0.60;99.90
4461;DHT22;2243;48.812;9.232;2023-12-04T10:45:54;-0.50;99.90
4461;DHT22;2243;48.812;9.232;2023-12-04T10:48:25;-0.50;99.90
4461;DHT22;2243;48.812;9.232;2023-12-04T10:50:58;-0.40;99.90
4461;DHT22;2243;48.812;9.232;2023-12-04T10:53:32;-0.40;99.90
4461;DHT22;2243;48.812;9.232;2023-12-04T10:56:04;-0.30;99.90
4461;DHT22;2243;48.812;9.232;2023-12-04T10:58:37;-0.20;99.90
4461;DHT22;2243;48.812;9.232;2023-12-04T11:01:11;-0.30;99.90
4461;DHT22;2243;48.812;9.232;2023-12-04T11:03:53;-0.20;99.90
4461;DHT22;2243;48.812;9.232;2023-12-04T11:06:27;-0.10;99.90
4461;DHT22;2243;48.812;9.232;2023-12-04T11:08:59;-0.10;99.90
4461;DHT22;2243;48.812;9.232;2023-12-04T11:11:35;-0.20;99.90
4461;DHT22;2243;48.812;9.232;2023-12-04T11:14:10;-0.10;99.90
4461;DHT22;2243;48.812;9.232;2023-12-04T11:16:51;0.10;99.90
4461;DHT22;2243;48.812;9.232;2023-12-04T11:22:49;0.40;99.90
4461;DHT22;2243;48.812;9.232;2023-12-04T11:25:22;0.40;99.90
4461;DHT22;2243;48.812;9.232;2023-12-04T11:27:56;0.40;99.90
4461;DHT22;2243;48.812;9.232;2023-12-04T11:30:28;0.40;99.90
4461;DHT22;2243;48.812;9.232;2023-12-04T11:33:00;0.40;99.90
4461;DHT22;2243;48.812;9.232;2023-12-04T11:35:33;0.60;99.90
4461;DHT22;2243;48.812;9.232;2023-12-04T11:38:05;0.40;99.90
4461;DHT22;2243;48.812;9.232;2023-12-04T11:40:37;0.30;99.90
4461;DHT22;2243;48.812;9.232;2023-12-04T11:43:25;0.10;99.90
4461;DHT22;2243;48.812;9.232;2023-12-04T11:46:09;0.00;99.90
4461;DHT22;2243;48.812;9.232;2023-12-04T11:48:42;0.10;99.90
4461;DHT22;2243;48.812;9.232;2023-12-04T11:54:18;0.20;99.90
4461;DHT22;2243;48.812;9.232;2023-12-04T11:56:57;0.30;99.90
4461;DHT22;2243;48.812;9.232;2023-12-04T11:59:37;0.20;99.90
4461;DHT22;2243;48.812;9.232;2023-12-04T12:02:10;0.20;99.90
4461;DHT22;2243;48.812;9.232;2023-12-04T12:04:42;0.30;99.90
4461;DHT22;2243;48.812;9.232;2023-12-04T12:07:14;0.30;99.90
4461;DHT22;2243;48.812;9.232;2023-12-04T12:09:45;0.40;99.90
4461;DHT22;2243;48.812;9.232;2023-12-04T12:12:19;0.40;99.90
4461;DHT22;2243;48.812;9.232;2023-12-04T12:14:50;0.40;99.90
4461;DHT22;2243;48.812;9.232;2023-12-04T12:17:21;0.50;99.90
4461;DHT22;2243;48.812;9.232;2023-12-04T12:19:55;0.70;99.90
4461;DHT22;2243;48.812;9.232;2023-12-04T12:22:28;0.80;99.90
4461;DHT22;2243;48.812;9.232;2023-12-04T12:25:00;0.90;99.90
4461;DHT22;2243;48.812;9.232;2023-12-04T12:27:32;1.00;99.90
4461;DHT22;2243;48.812;9.232;2023-12-04T12:30:04;1.10;99.90
4461;DHT22;2243;48.812;9.232;2023-12-04T12:32:36;1.10;99.90
4461;DHT22;2243;48.812;9.232;2023-12-04T12:35:08;1.20;99.90
4461;DHT22;2243;48.812;9.232;2023-12-04T12:37:39;1.20;99.90
4461;DHT22;2243;48.812;9.232;2023-12-04T12:40:11;1.20;99.90
4461;DHT22;2243;48.812;9.232;2023-12-04T12:42:42;1.20;99.90
4461;DHT22;2243;48.812;9.232;2023-12-04T12:45:13;1.30;99.90
4461;DHT22;2243;48.812;9.232;2023-12-04T12:47:45;1.30;99.90
4461;DHT22;2243;48.812;9.232;2023-12-04T12:50:17;1.00;99.90
4461;DHT22;2243;48.812;9.232;2023-12-04T12:52:49;1.00;99.90
4461;DHT22;2243;48.812;9.232;2023-12-04T12:55:23;1.00;99.90
4461;DHT22;2243;48.812;9.232;2023-12-04T12:57:56;1.00;99.90
4461;DHT22;2243;48.812;9.232;2023-12-04T13:00:27;0.90;99.90
4461;DHT22;2243;48.812;9.232;2023-12-04T13:02:58;0.90;99.90
4461;DHT22;2243;48.812;9.232;2023-12-04T13:05:30;0.70;99.90
4461;DHT22;2243;48.812;9.232;2023-12-04T13:08:01;0.60;99.90
4461;DHT22;2243;48.812;9.232;2023-12-04T13:10:31;0.70;99.90
4461;DHT22;2243;48.812;9.232;2023-12-04T13:13:03;0.70;99.90
4461;DHT22;2243;48.812;9.232;2023-12-04T13:15:34;0.80;99.90
4461;DHT22;2243;48.812;9.232;2023-12-04T13:18:05;0.80;99.90
4461;DHT22;2243;48.812;9.232;2023-12-04T13:20:36;0.50;99.90
4461;DHT22;2243;48.812;9.232;2023-12-04T13:23:07;0.50;99.90
4461;DHT22;2243;48.812;9.232;2023-12-04T13:25:38;0.50;99.90
4461;DHT22;2243;48.812;9.232;2023-12-04T13:28:09;0.50;99.90
4461;DHT22;2243;48.812;9.232;2023-12-04T13:30:57;0.60;99.90
4461;DHT22;2243;48.812;9.232;2023-12-04T13:33:28;0.50;99.90
4461;DHT22;2243;48.812;9.232;2023-12-04T13:35:59;0.40;99.90
4461;DHT22;2243;48.812;9.232;2023-12-04T13:38:30;0.60;99.90
4461;DHT22;2243;48.812;9.232;2023-12-04T13:41:07;0.40;99.90
4461;DHT22;2243;48.812;9.232;2023-12-04T13:43:57;0.20;99.90
4461;DHT22;2243;48.812;9.232;2023-12-04T13:46:30;0.40;99.90
4461;DHT22;2243;48.812;9.232;2023-12-04T13:49:02;0.40;99.90
4461;DHT22;2243;48.812;9.232;2023-12-04T13:51:33;0.30;99.90
4461;DHT22;2243;48.812;9.232;2023-12-04T13:54:05;0.30;99.90
4461;DHT22;2243;48.812;9.232;2023-12-04T13:56:50;0.30;99.90
4461;DHT22;2243;48.812;9.232;2023-12-04T13:59:24;0.40;99.90
4461;DHT22;2243;48.812;9.232;2023-12-04T14:01:57;0.40;99.90
4461;DHT22;2243;48.812;9.232;2023-12-04T14:04:31;0.50;99.90
4461;DHT22;2243;48.812;9.232;2023-12-04T14:07:02;0.40;99.90
4461;DHT22;2243;48.812;9.232;2023-12-04T14:09:36;0.50;99.90
4461;DHT22;2243;48.812;9.232;2023-12-04T14:12:07;0.40;99.90
4461;DHT22;2243;48.812;9.232;2023-12-04T14:14:39;0.50;99.90
4461;DHT22;2243;48.812;9.232;2023-12-04T14:17:10;0.50;99.90
4461;DHT22;2243;48.812;9.232;2023-12-04T14:19:42;0.60;99.90
4461;DHT22;2243;48.812;9.232;2023-12-04T14:22:13;0.50;99.90
4461;DHT22;2243;48.812;9.232;2023-12-04T14:24:44;0.50;99.90
4461;DHT22;2243;48.812;9.232;2023-12-04T14:27:16;0.40;99.90
4461;DHT22;2243;48.812;9.232;2023-12-04T14:29:47;0.40;99.90
4461;DHT22;2243;48.812;9.232;2023-12-04T14:32:18;0.50;99.90
4461;DHT22;2243;48.812;9.232;2023-12-04T14:34:54;0.60;99.90
4461;DHT22;2243;48.812;9.232;2023-12-04T14:37:26;0.70;99.90
4461;DHT22;2243;48.812;9.232;2023-12-04T14:39:57;0.70;99.90
4461;DHT22;2243;48.812;9.232;2023-12-04T14:42:28;0.70;99.90
4461;DHT22;2243;48.812;9.232;2023-12-04T14:44:59;0.80;99.90
4461;DHT22;2243;48.812;9.232;2023-12-04T14:47:31;0.70;99.90
4461;DHT22;2243;48.812;9.232;2023-12-04T14:50:03;0.70;99.90
4461;DHT22;2243;48.812;9.232;2023-12-04T14:52:35;0.50;99.90
4461;DHT22;2243;48.812;9.232;2023-12-04T14:55:08;0.60;99.90
4461;DHT22;2243;48.812;9.232;2023-12-04T14:57:39;0.70;99.90
4461;DHT22;2243;48.812;9.232;2023-12-04T15:00:10;0.70;99.90
4461;DHT22;2243;48.812;9.232;2023-12-04T15:03:00;0.50;99.90
4461;DHT22;2243;48.812;9.232;2023-12-04T15:05:43;0.50;99.90
4461;DHT22;2243;48.812;9.232;2023-12-04T15:08:33;0.40;99.90
4461;DHT22;2243;48.812;9.232;2023-12-04T15:11:16;0.50;99.90
4461;DHT22;2243;48.812;9.232;2023-12-04T15:14:05;0.60;99.90
4461;DHT22;2243;48.812;9.232;2023-12-04T15:16:39;0.60;99.90
4461;DHT22;2243;48.812;9.232;2023-12-04T15:19:20;0.60;99.90
4461;DHT22;2243;48.812;9.232;2023-12-04T15:22:07;0.60;99.90
4461;DHT22;2243;48.812;9.232;2023-12-04T15:24:38;0.60;99.90
4461;DHT22;2243;48.812;9.232;2023-12-04T15:27:09;0.60;99.90
4461;DHT22;2243;48.812;9.232;2023-12-04T15:29:40;0.70;99.90
4461;DHT22;2243;48.812;9.232;2023-12-04T15:32:11;0.80;99.90
4461;DHT22;2243;48.812;9.232;2023-12-04T15:34:42;0.80;99.90
4461;DHT22;2243;48.812;9.232;2023-12-04T15:37:14;0.80;99.90
4461;DHT22;2243;48.812;9.232;2023-12-04T15:39:45;0.90;99.90
4461;DHT22;2243;48.812;9.232;2023-12-04T15:42:16;0.80;99.90
4461;DHT22;2243;48.812;9.232;2023-12-04T15:44:47;0.90;99.90
4461;DHT22;2243;48.812;9.232;2023-12-04T15:47:18;0.90;99.90
4461;DHT22;2243;48.812;9.232;2023-12-04T15:49:51;0.80;99.90
4461;DHT22;2243;48.812;9.232;2023-12-04T15:52:22;0.80;99.90
4461;DHT22;2243;48.812;9.232;2023-12-04T15:54:58;0.70;99.90
4461;DHT22;2243;48.812;9.232;2023-12-04T15:57:29;0.80;99.90
4461;DHT22;2243;48.812;9.232;2023-12-04T16:00:00;0.90;99.90
4461;DHT22;2243;48.812;9.232;2023-12-04T16:02:31;0.90;99.90
4461;DHT22;2243;48.812;9.232;2023-12-04T16:05:03;1.00;99.90
4461;DHT22;2243;48.812;9.232;2023-12-04T16:07:35;0.90;99.90
4461;DHT22;2243;48.812;9.232;2023-12-04T16:10:07;1.00;99.90
4461;DHT22;2243;48.812;9.232;2023-12-04T16:12:38;1.10;99.90
4461;DHT22;2243;48.812;9.232;2023-12-04T16:15:10;1.00;99.90
4461;DHT22;2243;48.812;9.232;2023-12-04T16:17:41;1.10;99.90
4461;DHT22;2243;48.812;9.232;2023-12-04T16:20:12;1.20;99.90
4461;DHT22;2243;48.812;9.232;2023-12-04T16:22:44;1.20;99.90
4461;DHT22;2243;48.812;9.232;2023-12-04T16:25:15;1.20;99.90
4461;DHT22;2243;48.812;9.232;2023-12-04T16:27:49;1.20;99.90
4461;DHT22;2243;48.812;9.232;2023-12-04T16:30:21;1.30;99.90
4461;DHT22;2243;48.812;9.232;2023-12-04T16:32:52;1.40;99.90
4461;DHT22;2243;48.812;9.232;2023-12-04T16:35:24;1.40;99.90
4461;DHT22;2243;48.812;9.232;2023-12-04T16:37:55;1.40;99.90
4461;DHT22;2243;48.812;9.232;2023-12-04T16:40:26;1.30;99.90
4461;DHT22;2243;48.812;9.232;2023-12-04T16:42:57;1.30;99.90
4461;DHT22;2243;48.812;9.232;2023-12-04T16:45:32;1.30;99.90